sensor_id;sensor_type;location;lat;lon;timestamp;temperature;humidity
4249;DHT22;8404;48.752;12.922;2022-09-02T00:00:57;12.30;92.70
4249;DHT22;8404;48.752;12.922;2022-09-02T00:03:28;12.20;92.60
4249;DHT22;8404;48.752;12.922;2022-09-02T00:05:57;12.20;92.80
4249;DHT22;8404;48.752;12.922;2022-09-02T00:08:26;12.20;92.70
4249;DHT22;8404;48.752;12.922;2022-09-02T00:10:54;12.20;92.80
4249;DHT22;8404;48.752;12.922;2022-09-02T00:13:23;12.10;92.80
4249;DHT22;8404;48.752;12.922;2022-09-02T00:15:52;12.10;92.80
4249;DHT22;8404;48.752;12.922;2022-09-02T00:18:21;12.00;92.80
4249;DHT22;8404;48.752;12.922;2022-09-02T00:20:54;12.00;92.90
4249;DHT22;8404;48.752;12.922;2022-09-02T00:23:22;11.90;92.80
4249;DHT22;8404;48.752;12.922;2022-09-02T00:25:53;11.90;93.00
4249;DHT22;8404;48.752;12.922;2022-09-02T00:28:21;11.80;93.00
4249;DHT22;8404;48.752;12.922;2022-09-02T00:30:50;11.80;93.10
4249;DHT22;8404;48.752;12.922;2022-09-02T00:33:18;11.70;93.00
4249;DHT22;8404;48.752;12.922;2022-09-02T00:35:50;11.70;93.30
4249;DHT22;8404;48.752;12.922;2022-09-02T00:38:18;11.70;93.20
4249;DHT22;8404;48.752;12.922;2022-09-02T00:40:48;11.60;93.10
4249;DHT22;8404;48.752;12.922;2022-09-02T00:43:25;11.60;93.10
4249;DHT22;8404;48.752;12.922;2022-09-02T00:45:54;11.60;93.10
4249;DHT22;8404;48.752;12.922;2022-09-02T00:48:22;11.50;93.10
4249;DHT22;8404;48.752;12.922;2022-09-02T00:50:52;11.50;93.20
4249;DHT22;8404;48.752;12.922;2022-09-02T00:53:21;11.40;93.30
4249;DHT22;8404;48.752;12.922;2022-09-02T00:55:51;11.40;93.30
4249;DHT22;8404;48.752;12.922;2022-09-02T00:58:22;11.40;93.30
4249;DHT22;8404;48.752;12.922;2022-09-02T01:00:54;11.30;93.30
4249;DHT22;8404;48.752;12.922;2022-09-02T01:03:25;11.30;93.30
4249;DHT22;8404;48.752;12.922;2022-09-02T01:05:57;11.30;93.40
4249;DHT22;8404;48.752;12.922;2022-09-02T01:08:32;11.30;93.40
4249;DHT22;8404;48.752;12.922;2022-09-02T01:11:02;11.30;93.40
4249;DHT22;8404;48.752;12.922;2022-09-02T01:13:36;11.30;93.50
4249;DHT22;8404;48.752;12.922;2022-09-02T01:16:10;11.30;93.40
4249;DHT22;8404;48.752;12.922;2022-09-02T01:18:39;11.40;93.30
4249;DHT22;8404;48.752;12.922;2022-09-02T01:21:11;11.50;92.80
4249;DHT22;8404;48.752;12.922;2022-09-02T01:23:41;11.50;92.70
4249;DHT22;8404;48.752;12.922;2022-09-02T01:26:09;11.50;92.60
4249;DHT22;8404;48.752;12.922;2022-09-02T01:28:38;11.50;92.60
4249;DHT22;8404;48.752;12.922;2022-09-02T01:31:06;11.40;92.50
4249;DHT22;8404;48.752;12.922;2022-09-02T01:33:35;11.50;92.10
4249;DHT22;8404;48.752;12.922;2022-09-02T01:36:04;11.40;92.00
4249;DHT22;8404;48.752;12.922;2022-09-02T01:38:34;11.40;92.20
4249;DHT22;8404;48.752;12.922;2022-09-02T01:41:04;11.40;92.20
4249;DHT22;8404;48.752;12.922;2022-09-02T01:43:33;11.40;92.40
4249;DHT22;8404;48.752;12.922;2022-09-02T01:46:02;11.30;92.50
4249;DHT22;8404;48.752;12.922;2022-09-02T01:48:31;11.30;92.60
4249;DHT22;8404;48.752;12.922;2022-09-02T01:51:02;11.30;92.60
4249;DHT22;8404;48.752;12.922;2022-09-02T01:53:31;11.40;92.70
4249;DHT22;8404;48.752;12.922;2022-09-02T01:55:59;11.30;92.70
4249;DHT22;8404;48.752;12.922;2022-09-02T01:58:33;11.30;92.60
4249;DHT22;8404;48.752;12.922;2022-09-02T02:01:02;11.30;92.60
4249;DHT22;8404;48.752;12.922;2022-09-02T02:03:31;11.30;92.60
4249;DHT22;8404;48.752;12.922;2022-09-02T02:06:00;11.30;92.70
4249;DHT22;8404;48.752;12.922;2022-09-02T02:08:28;11.30;92.80
4249;DHT22;8404;48.752;12.922;2022-09-02T02:10:58;11.20;92.70
4249;DHT22;8404;48.752;12.922;2022-09-02T02:13:29;11.20;92.70
4249;DHT22;8404;48.752;12.922;2022-09-02T02:15:59;11.20;92.90
4249;DHT22;8404;48.752;12.922;2022-09-02T02:18:28;11.20;92.80
4249;DHT22;8404;48.752;12.922;2022-09-02T02:20:58;11.10;92.80
4249;DHT22;8404;48.752;12.922;2022-09-02T02:23:27;11.10;92.70
4249;DHT22;8404;48.752;12.922;2022-09-02T02:25:55;11.00;92.70
4249;DHT22;8404;48.752;12.922;2022-09-02T02:28:24;11.00;92.80
4249;DHT22;8404;48.752;12.922;2022-09-02T02:30:52;11.00;92.80
4249;DHT22;8404;48.752;12.922;2022-09-02T02:33:22;10.90;92.70
4249;DHT22;8404;48.752;12.922;2022-09-02T02:36:03;10.80;92.80
4249;DHT22;8404;48.752;12.922;2022-09-02T02:38:33;10.70;92.80
4249;DHT22;8404;48.752;12.922;2022-09-02T02:41:01;10.70;92.80
4249;DHT22;8404;48.752;12.922;2022-09-02T02:43:33;10.70;92.90
4249;DHT22;8404;48.752;12.922;2022-09-02T02:46:03;10.60;92.90
4249;DHT22;8404;48.752;12.922;2022-09-02T02:48:34;10.50;93.00
4249;DHT22;8404;48.752;12.922;2022-09-02T02:51:04;10.50;93.20
4249;DHT22;8404;48.752;12.922;2022-09-02T02:53:33;10.40;93.20
4249;DHT22;8404;48.752;12.922;2022-09-02T02:56:03;10.40;93.30
4249;DHT22;8404;48.752;12.922;2022-09-02T02:58:32;10.30;93.30
4249;DHT22;8404;48.752;12.922;2022-09-02T03:01:01;10.30;93.50
4249;DHT22;8404;48.752;12.922;2022-09-02T03:03:30;10.30;93.40
4249;DHT22;8404;48.752;12.922;2022-09-02T03:06:01;10.20;93.40
4249;DHT22;8404;48.752;12.922;2022-09-02T03:08:29;10.30;93.60
4249;DHT22;8404;48.752;12.922;2022-09-02T03:11:01;10.20;93.50
4249;DHT22;8404;48.752;12.922;2022-09-02T03:13:37;10.20;93.60
4249;DHT22;8404;48.752;12.922;2022-09-02T03:16:06;10.20;93.50
4249;DHT22;8404;48.752;12.922;2022-09-02T03:18:34;10.20;93.60
4249;DHT22;8404;48.752;12.922;2022-09-02T03:21:07;10.20;93.60
4249;DHT22;8404;48.752;12.922;2022-09-02T03:23:36;10.10;93.60
4249;DHT22;8404;48.752;12.922;2022-09-02T03:26:09;10.10;93.60
4249;DHT22;8404;48.752;12.922;2022-09-02T03:28:39;10.10;93.70
4249;DHT22;8404;48.752;12.922;2022-09-02T03:31:13;10.10;93.80
4249;DHT22;8404;48.752;12.922;2022-09-02T03:33:42;10.10;93.80
4249;DHT22;8404;48.752;12.922;2022-09-02T03:36:24;10.20;93.80
4249;DHT22;8404;48.752;12.922;2022-09-02T03:38:55;10.20;93.80
4249;DHT22;8404;48.752;12.922;2022-09-02T03:41:24;10.20;93.80
4249;DHT22;8404;48.752;12.922;2022-09-02T03:43:54;10.20;93.70
4249;DHT22;8404;48.752;12.922;2022-09-02T03:46:23;10.20;93.70
4249;DHT22;8404;48.752;12.922;2022-09-02T03:48:52;10.20;93.70
4249;DHT22;8404;48.752;12.922;2022-09-02T03:51:24;10.20;93.70
4249;DHT22;8404;48.752;12.922;2022-09-02T03:53:53;10.20;93.80
4249;DHT22;8404;48.752;12.922;2022-09-02T03:56:22;10.20;93.80
4249;DHT22;8404;48.752;12.922;2022-09-02T03:58:51;10.20;93.80
4249;DHT22;8404;48.752;12.922;2022-09-02T04:01:25;10.20;93.70
4249;DHT22;8404;48.752;12.922;2022-09-02T04:04:04;10.20;93.80
4249;DHT22;8404;48.752;12.922;2022-09-02T04:06:35;10.20;93.80
4249;DHT22;8404;48.752;12.922;2022-09-02T04:09:04;10.10;93.80
4249;DHT22;8404;48.752;12.922;2022-09-02T04:11:34;10.10;93.80
4249;DHT22;8404;48.752;12.922;2022-09-02T04:14:03;10.10;93.80
4249;DHT22;8404;48.752;12.922;2022-09-02T04:16:32;10.10;93.90
4249;DHT22;8404;48.752;12.922;2022-09-02T04:19:06;10.10;93.90
4249;DHT22;8404;48.752;12.922;2022-09-02T04:21:39;10.10;93.90
4249;DHT22;8404;48.752;12.922;2022-09-02T04:24:09;10.10;93.90
4249;DHT22;8404;48.752;12.922;2022-09-02T04:26:42;10.10;94.10
4249;DHT22;8404;48.752;12.922;2022-09-02T04:29:14;10.10;94.00
4249;DHT22;8404;48.752;12.922;2022-09-02T04:31:47;10.00;93.90
4249;DHT22;8404;48.752;12.922;2022-09-02T04:34:15;10.00;93.90
4249;DHT22;8404;48.752;12.922;2022-09-02T04:36:47;10.00;93.90
4249;DHT22;8404;48.752;12.922;2022-09-02T04:39:17;10.00;94.00
4249;DHT22;8404;48.752;12.922;2022-09-02T04:41:45;10.00;94.00
4249;DHT22;8404;48.752;12.922;2022-09-02T04:44:14;10.00;94.00
4249;DHT22;8404;48.752;12.922;2022-09-02T04:46:46;10.00;94.00
4249;DHT22;8404;48.752;12.922;2022-09-02T04:49:18;10.00;94.00
4249;DHT22;8404;48.752;12.922;2022-09-02T04:51:52;10.00;94.00
4249;DHT22;8404;48.752;12.922;2022-09-02T04:54:23;10.00;94.00
4249;DHT22;8404;48.752;12.922;2022-09-02T04:56:53;10.10;94.10
4249;DHT22;8404;48.752;12.922;2022-09-02T04:59:23;10.10;94.10
4249;DHT22;8404;48.752;12.922;2022-09-02T05:02:05;10.10;94.00
4249;DHT22;8404;48.752;12.922;2022-09-02T05:04:35;10.20;94.10
4249;DHT22;8404;48.752;12.922;2022-09-02T05:07:10;10.20;94.10
4249;DHT22;8404;48.752;12.922;2022-09-02T05:09:43;10.20;94.10
4249;DHT22;8404;48.752;12.922;2022-09-02T05:12:12;10.20;94.10
4249;DHT22;8404;48.752;12.922;2022-09-02T05:14:51;10.30;94.20
4249;DHT22;8404;48.752;12.922;2022-09-02T05:17:22;10.30;94.20
4249;DHT22;8404;48.752;12.922;2022-09-02T05:19:53;10.40;94.10
4249;DHT22;8404;48.752;12.922;2022-09-02T05:22:23;10.50;94.10
4249;DHT22;8404;48.752;12.922;2022-09-02T05:24:57;10.50;94.10
4249;DHT22;8404;48.752;12.922;2022-09-02T05:27:27;10.60;94.20
4249;DHT22;8404;48.752;12.922;2022-09-02T05:29:56;10.70;94.30
4249;DHT22;8404;48.752;12.922;2022-09-02T05:32:27;10.80;94.20
4249;DHT22;8404;48.752;12.922;2022-09-02T05:35:03;10.90;94.10
4249;DHT22;8404;48.752;12.922;2022-09-02T05:37:35;11.00;94.30
4249;DHT22;8404;48.752;12.922;2022-09-02T05:40:06;11.00;94.00
4249;DHT22;8404;48.752;12.922;2022-09-02T05:42:40;11.20;93.90
4249;DHT22;8404;48.752;12.922;2022-09-02T05:45:10;11.20;93.80
4249;DHT22;8404;48.752;12.922;2022-09-02T05:47:43;11.40;93.90
4249;DHT22;8404;48.752;12.922;2022-09-02T05:50:12;11.50;93.80
4249;DHT22;8404;48.752;12.922;2022-09-02T05:52:44;11.60;93.70
4249;DHT22;8404;48.752;12.922;2022-09-02T05:55:18;11.70;93.70
4249;DHT22;8404;48.752;12.922;2022-09-02T05:57:48;11.80;93.70
4249;DHT22;8404;48.752;12.922;2022-09-02T06:00:16;11.90;93.60
4249;DHT22;8404;48.752;12.922;2022-09-02T06:02:54;12.00;93.60
4249;DHT22;8404;48.752;12.922;2022-09-02T06:05:27;12.10;93.50
4249;DHT22;8404;48.752;12.922;2022-09-02T06:08:06;12.20;93.40
4249;DHT22;8404;48.752;12.922;2022-09-02T06:10:40;12.40;93.20
4249;DHT22;8404;48.752;12.922;2022-09-02T06:13:14;12.50;92.90
4249;DHT22;8404;48.752;12.922;2022-09-02T06:15:51;12.60;92.80
4249;DHT22;8404;48.752;12.922;2022-09-02T06:18:24;12.70;92.50
4249;DHT22;8404;48.752;12.922;2022-09-02T06:20:55;12.80;92.70
4249;DHT22;8404;48.752;12.922;2022-09-02T06:23:31;12.90;92.20
4249;DHT22;8404;48.752;12.922;2022-09-02T06:26:01;13.00;91.90
4249;DHT22;8404;48.752;12.922;2022-09-02T06:28:30;13.10;91.90
4249;DHT22;8404;48.752;12.922;2022-09-02T06:30:59;13.20;91.90
4249;DHT22;8404;48.752;12.922;2022-09-02T06:33:33;13.30;91.70
4249;DHT22;8404;48.752;12.922;2022-09-02T06:36:05;13.40;91.60
4249;DHT22;8404;48.752;12.922;2022-09-02T06:38:37;13.50;91.50
4249;DHT22;8404;48.752;12.922;2022-09-02T06:41:13;13.60;91.20
4249;DHT22;8404;48.752;12.922;2022-09-02T06:43:43;13.80;90.90
4249;DHT22;8404;48.752;12.922;2022-09-02T06:46:25;13.90;90.60
4249;DHT22;8404;48.752;12.922;2022-09-02T06:48:57;14.00;90.30
4249;DHT22;8404;48.752;12.922;2022-09-02T06:51:27;14.10;89.60
4249;DHT22;8404;48.752;12.922;2022-09-02T06:54:00;14.20;89.40
4249;DHT22;8404;48.752;12.922;2022-09-02T06:56:33;14.30;88.00
4249;DHT22;8404;48.752;12.922;2022-09-02T06:59:03;14.50;86.90
4249;DHT22;8404;48.752;12.922;2022-09-02T07:01:41;14.60;85.90
4249;DHT22;8404;48.752;12.922;2022-09-02T07:04:14;14.70;85.80
4249;DHT22;8404;48.752;12.922;2022-09-02T07:07:07;14.80;85.40
4249;DHT22;8404;48.752;12.922;2022-09-02T07:09:45;14.90;85.50
4249;DHT22;8404;48.752;12.922;2022-09-02T07:12:17;15.10;82.30
4249;DHT22;8404;48.752;12.922;2022-09-02T07:14:59;15.20;82.20
4249;DHT22;8404;48.752;12.922;2022-09-02T07:17:33;15.30;81.70
4249;DHT22;8404;48.752;12.922;2022-09-02T07:20:04;15.30;81.80
4249;DHT22;8404;48.752;12.922;2022-09-02T07:22:43;15.40;80.20
4249;DHT22;8404;48.752;12.922;2022-09-02T07:25:17;15.50;79.50
4249;DHT22;8404;48.752;12.922;2022-09-02T07:27:48;15.70;78.40
4249;DHT22;8404;48.752;12.922;2022-09-02T07:30:18;15.80;78.90
4249;DHT22;8404;48.752;12.922;2022-09-02T07:32:50;15.90;76.00
4249;DHT22;8404;48.752;12.922;2022-09-02T07:35:22;16.10;75.60
4249;DHT22;8404;48.752;12.922;2022-09-02T07:37:51;16.20;75.30
4249;DHT22;8404;48.752;12.922;2022-09-02T07:40:22;16.30;74.50
4249;DHT22;8404;48.752;12.922;2022-09-02T07:42:51;16.40;74.30
4249;DHT22;8404;48.752;12.922;2022-09-02T07:45:21;16.40;74.00
4249;DHT22;8404;48.752;12.922;2022-09-02T07:47:50;16.50;73.60
4249;DHT22;8404;48.752;12.922;2022-09-02T07:50:19;16.70;72.10
4249;DHT22;8404;48.752;12.922;2022-09-02T07:52:52;16.80;72.00
4249;DHT22;8404;48.752;12.922;2022-09-02T07:55:23;16.80;72.20
4249;DHT22;8404;48.752;12.922;2022-09-02T07:57:53;16.80;72.60
4249;DHT22;8404;48.752;12.922;2022-09-02T08:00:23;16.90;70.70
4249;DHT22;8404;48.752;12.922;2022-09-02T08:02:57;17.00;69.80
4249;DHT22;8404;48.752;12.922;2022-09-02T08:05:32;17.10;70.00
4249;DHT22;8404;48.752;12.922;2022-09-02T08:08:01;17.20;69.10
4249;DHT22;8404;48.752;12.922;2022-09-02T08:10:32;17.30;68.70
4249;DHT22;8404;48.752;12.922;2022-09-02T08:13:01;17.40;67.50
4249;DHT22;8404;48.752;12.922;2022-09-02T08:15:33;17.50;67.50
4249;DHT22;8404;48.752;12.922;2022-09-02T08:18:03;17.50;66.80
4249;DHT22;8404;48.752;12.922;2022-09-02T08:20:32;17.60;66.80
4249;DHT22;8404;48.752;12.922;2022-09-02T08:23:03;17.70;66.30
4249;DHT22;8404;48.752;12.922;2022-09-02T08:25:40;17.80;65.90
4249;DHT22;8404;48.752;12.922;2022-09-02T08:28:09;17.90;64.40
4249;DHT22;8404;48.752;12.922;2022-09-02T08:30:38;18.00;64.00
4249;DHT22;8404;48.752;12.922;2022-09-02T08:33:06;18.10;64.30
4249;DHT22;8404;48.752;12.922;2022-09-02T08:35:35;18.30;63.30
4249;DHT22;8404;48.752;12.922;2022-09-02T08:38:03;18.40;63.20
4249;DHT22;8404;48.752;12.922;2022-09-02T08:40:36;18.40;63.00
4249;DHT22;8404;48.752;12.922;2022-09-02T08:43:18;18.50;62.90
4249;DHT22;8404;48.752;12.922;2022-09-02T08:45:48;18.50;63.70
4249;DHT22;8404;48.752;12.922;2022-09-02T08:48:19;18.70;62.90
4249;DHT22;8404;48.752;12.922;2022-09-02T08:50:52;18.70;61.80
4249;DHT22;8404;48.752;12.922;2022-09-02T08:53:30;18.80;61.40
4249;DHT22;8404;48.752;12.922;2022-09-02T08:56:01;18.90;60.00
4249;DHT22;8404;48.752;12.922;2022-09-02T08:58:37;18.90;59.50
4249;DHT22;8404;48.752;12.922;2022-09-02T09:01:11;19.00;59.40
4249;DHT22;8404;48.752;12.922;2022-09-02T09:03:51;19.10;59.30
4249;DHT22;8404;48.752;12.922;2022-09-02T09:06:32;19.20;59.70
4249;DHT22;8404;48.752;12.922;2022-09-02T09:09:11;19.30;58.80
4249;DHT22;8404;48.752;12.922;2022-09-02T09:11:44;19.40;59.80
4249;DHT22;8404;48.752;12.922;2022-09-02T09:14:24;19.50;58.10
4249;DHT22;8404;48.752;12.922;2022-09-02T09:16:58;19.50;58.80
4249;DHT22;8404;48.752;12.922;2022-09-02T09:19:36;19.60;57.80
4249;DHT22;8404;48.752;12.922;2022-09-02T09:22:05;19.60;56.60
4249;DHT22;8404;48.752;12.922;2022-09-02T09:24:37;19.70;57.20
4249;DHT22;8404;48.752;12.922;2022-09-02T09:27:10;19.80;56.30
4249;DHT22;8404;48.752;12.922;2022-09-02T09:29:41;19.80;55.30
4249;DHT22;8404;48.752;12.922;2022-09-02T09:32:16;19.80;55.40
4249;DHT22;8404;48.752;12.922;2022-09-02T09:35:03;20.00;55.90
4249;DHT22;8404;48.752;12.922;2022-09-02T09:37:36;20.00;54.80
4249;DHT22;8404;48.752;12.922;2022-09-02T09:40:25;20.10;54.50
4249;DHT22;8404;48.752;12.922;2022-09-02T09:42:56;20.20;53.60
4249;DHT22;8404;48.752;12.922;2022-09-02T09:45:29;20.20;53.80
4249;DHT22;8404;48.752;12.922;2022-09-02T09:48:22;20.10;53.50
4249;DHT22;8404;48.752;12.922;2022-09-02T09:51:11;20.20;55.00
4249;DHT22;8404;48.752;12.922;2022-09-02T09:53:40;20.30;53.50
4249;DHT22;8404;48.752;12.922;2022-09-02T09:56:29;20.30;54.30
4249;DHT22;8404;48.752;12.922;2022-09-02T09:59:07;20.40;54.20
4249;DHT22;8404;48.752;12.922;2022-09-02T10:01:38;20.50;53.20
4249;DHT22;8404;48.752;12.922;2022-09-02T10:04:08;20.50;53.90
4249;DHT22;8404;48.752;12.922;2022-09-02T10:06:57;20.60;53.20
4249;DHT22;8404;48.752;12.922;2022-09-02T10:09:30;20.60;53.40
4249;DHT22;8404;48.752;12.922;2022-09-02T10:12:00;20.60;52.90
4249;DHT22;8404;48.752;12.922;2022-09-02T10:14:33;20.70;52.60
4249;DHT22;8404;48.752;12.922;2022-09-02T10:17:25;20.80;51.60
4249;DHT22;8404;48.752;12.922;2022-09-02T10:19:58;21.00;52.10
4249;DHT22;8404;48.752;12.922;2022-09-02T10:22:48;21.00;52.50
4249;DHT22;8404;48.752;12.922;2022-09-02T10:25:31;21.10;51.50
4249;DHT22;8404;48.752;12.922;2022-09-02T10:28:06;21.10;52.00
4249;DHT22;8404;48.752;12.922;2022-09-02T10:30:45;21.10;51.70
4249;DHT22;8404;48.752;12.922;2022-09-02T10:33:28;21.10;52.10
4249;DHT22;8404;48.752;12.922;2022-09-02T10:36:02;21.20;52.50
4249;DHT22;8404;48.752;12.922;2022-09-02T10:38:37;21.30;51.30
4249;DHT22;8404;48.752;12.922;2022-09-02T10:41:17;21.30;51.60
4249;DHT22;8404;48.752;12.922;2022-09-02T10:46:47;21.30;50.90
4249;DHT22;8404;48.752;12.922;2022-09-02T10:49:28;21.40;51.10
4249;DHT22;8404;48.752;12.922;2022-09-02T10:52:07;21.50;50.70
4249;DHT22;8404;48.752;12.922;2022-09-02T10:54:45;21.50;49.00
4249;DHT22;8404;48.752;12.922;2022-09-02T10:57:21;21.50;49.20
4249;DHT22;8404;48.752;12.922;2022-09-02T10:59:56;21.50;48.90
4249;DHT22;8404;48.752;12.922;2022-09-02T11:02:33;21.60;50.10
4249;DHT22;8404;48.752;12.922;2022-09-02T11:05:10;21.60;50.30
4249;DHT22;8404;48.752;12.922;2022-09-02T11:07:42;21.70;50.40
4249;DHT22;8404;48.752;12.922;2022-09-02T11:10:16;21.80;48.50
4249;DHT22;8404;48.752;12.922;2022-09-02T11:12:51;21.90;49.40
4249;DHT22;8404;48.752;12.922;2022-09-02T11:15:29;21.90;49.70
4249;DHT22;8404;48.752;12.922;2022-09-02T11:18:06;21.90;48.80
4249;DHT22;8404;48.752;12.922;2022-09-02T11:20:43;22.00;49.10
4249;DHT22;8404;48.752;12.922;2022-09-02T11:23:20;22.10;49.10
4249;DHT22;8404;48.752;12.922;2022-09-02T11:25:54;22.20;49.70
4249;DHT22;8404;48.752;12.922;2022-09-02T11:28:30;22.20;49.10
4249;DHT22;8404;48.752;12.922;2022-09-02T11:31:05;22.30;49.50
4249;DHT22;8404;48.752;12.922;2022-09-02T11:33:45;22.30;48.30
4249;DHT22;8404;48.752;12.922;2022-09-02T11:36:15;22.30;49.60
4249;DHT22;8404;48.752;12.922;2022-09-02T11:38:49;22.40;48.70
4249;DHT22;8404;48.752;12.922;2022-09-02T11:41:27;22.40;47.60
4249;DHT22;8404;48.752;12.922;2022-09-02T11:44:14;22.50;47.60
4249;DHT22;8404;48.752;12.922;2022-09-02T11:46:59;22.50;47.30
4249;DHT22;8404;48.752;12.922;2022-09-02T11:50:02;22.50;47.10
4249;DHT22;8404;48.752;12.922;2022-09-02T11:52:52;22.50;47.10
4249;DHT22;8404;48.752;12.922;2022-09-02T11:55:30;22.50;47.50
4249;DHT22;8404;48.752;12.922;2022-09-02T11:58:00;22.60;47.60
4249;DHT22;8404;48.752;12.922;2022-09-02T12:00:32;22.60;46.70
4249;DHT22;8404;48.752;12.922;2022-09-02T12:03:16;22.70;48.00
4249;DHT22;8404;48.752;12.922;2022-09-02T12:06:09;22.70;48.00
4249;DHT22;8404;48.752;12.922;2022-09-02T12:09:00;22.80;47.50
4249;DHT22;8404;48.752;12.922;2022-09-02T12:11:44;22.90;47.70
4249;DHT22;8404;48.752;12.922;2022-09-02T12:17:43;23.10;45.80
4249;DHT22;8404;48.752;12.922;2022-09-02T12:26:27;23.20;43.50
4249;DHT22;8404;48.752;12.922;2022-09-02T12:29:10;23.00;44.90
4249;DHT22;8404;48.752;12.922;2022-09-02T12:31:40;23.00;45.10
4249;DHT22;8404;48.752;12.922;2022-09-02T12:34:50;23.10;45.30
4249;DHT22;8404;48.752;12.922;2022-09-02T12:37:51;23.20;44.80
4249;DHT22;8404;48.752;12.922;2022-09-02T12:40:31;23.30;44.80
4249;DHT22;8404;48.752;12.922;2022-09-02T12:43:05;23.40;45.00
4249;DHT22;8404;48.752;12.922;2022-09-02T12:45:43;23.40;44.70
4249;DHT22;8404;48.752;12.922;2022-09-02T12:48:18;23.40;44.60
4249;DHT22;8404;48.752;12.922;2022-09-02T12:51:04;23.50;43.80
4249;DHT22;8404;48.752;12.922;2022-09-02T12:53:36;23.50;44.00
4249;DHT22;8404;48.752;12.922;2022-09-02T12:56:17;23.60;44.10
4249;DHT22;8404;48.752;12.922;2022-09-02T12:58:51;23.70;45.00
4249;DHT22;8404;48.752;12.922;2022-09-02T13:01:35;23.70;43.80
4249;DHT22;8404;48.752;12.922;2022-09-02T13:04:21;23.80;44.70
4249;DHT22;8404;48.752;12.922;2022-09-02T13:07:32;23.90;43.80
4249;DHT22;8404;48.752;12.922;2022-09-02T13:13:12;24.10;44.50
4249;DHT22;8404;48.752;12.922;2022-09-02T13:16:10;24.10;43.60
4249;DHT22;8404;48.752;12.922;2022-09-02T13:28:20;24.50;43.30
4249;DHT22;8404;48.752;12.922;2022-09-02T13:31:03;25.50;43.10
4249;DHT22;8404;48.752;12.922;2022-09-02T13:33:34;27.20;41.90
4249;DHT22;8404;48.752;12.922;2022-09-02T13:36:08;29.70;37.80
4249;DHT22;8404;48.752;12.922;2022-09-02T13:38:37;30.30;36.90
4249;DHT22;8404;48.752;12.922;2022-09-02T13:41:05;31.40;36.60
4249;DHT22;8404;48.752;12.922;2022-09-02T13:43:35;32.30;36.00
4249;DHT22;8404;48.752;12.922;2022-09-02T13:46:05;33.10;35.10
4249;DHT22;8404;48.752;12.922;2022-09-02T13:48:37;33.80;34.50
4249;DHT22;8404;48.752;12.922;2022-09-02T13:51:11;34.30;33.90
4249;DHT22;8404;48.752;12.922;2022-09-02T13:53:43;34.80;33.50
4249;DHT22;8404;48.752;12.922;2022-09-02T13:56:33;35.20;33.40
4249;DHT22;8404;48.752;12.922;2022-09-02T13:59:02;35.60;33.40
4249;DHT22;8404;48.752;12.922;2022-09-02T14:01:34;35.90;33.10
4249;DHT22;8404;48.752;12.922;2022-09-02T14:04:08;36.10;32.40
4249;DHT22;8404;48.752;12.922;2022-09-02T14:06:40;36.50;31.10
4249;DHT22;8404;48.752;12.922;2022-09-02T14:09:17;36.50;30.10
4249;DHT22;8404;48.752;12.922;2022-09-02T14:11:48;36.50;30.80
4249;DHT22;8404;48.752;12.922;2022-09-02T14:14:20;36.70;31.20
4249;DHT22;8404;48.752;12.922;2022-09-02T14:16:50;36.90;30.90
4249;DHT22;8404;48.752;12.922;2022-09-02T14:19:24;36.90;31.30
4249;DHT22;8404;48.752;12.922;2022-09-02T14:21:53;37.30;31.50
4249;DHT22;8404;48.752;12.922;2022-09-02T14:24:24;37.50;30.80
4249;DHT22;8404;48.752;12.922;2022-09-02T14:26:54;37.60;30.30
4249;DHT22;8404;48.752;12.922;2022-09-02T14:29:24;37.80;30.60
4249;DHT22;8404;48.752;12.922;2022-09-02T14:32:10;37.90;31.20
4249;DHT22;8404;48.752;12.922;2022-09-02T14:34:40;37.80;30.80
4249;DHT22;8404;48.752;12.922;2022-09-02T14:37:21;37.90;29.90
4249;DHT22;8404;48.752;12.922;2022-09-02T14:39:51;37.80;29.40
4249;DHT22;8404;48.752;12.922;2022-09-02T14:42:20;37.40;29.70
4249;DHT22;8404;48.752;12.922;2022-09-02T14:44:48;37.40;30.10
4249;DHT22;8404;48.752;12.922;2022-09-02T14:47:20;37.30;30.00
4249;DHT22;8404;48.752;12.922;2022-09-02T14:49:51;37.20;30.00
4249;DHT22;8404;48.752;12.922;2022-09-02T14:52:24;37.10;30.00
4249;DHT22;8404;48.752;12.922;2022-09-02T14:54:54;36.80;29.80
4249;DHT22;8404;48.752;12.922;2022-09-02T14:57:24;36.80;29.80
4249;DHT22;8404;48.752;12.922;2022-09-02T14:59:59;36.70;30.10
4249;DHT22;8404;48.752;12.922;2022-09-02T15:02:31;36.50;30.00
4249;DHT22;8404;48.752;12.922;2022-09-02T15:05:02;36.50;29.80
4249;DHT22;8404;48.752;12.922;2022-09-02T15:07:31;36.30;29.80
4249;DHT22;8404;48.752;12.922;2022-09-02T15:09:59;36.20;30.10
4249;DHT22;8404;48.752;12.922;2022-09-02T15:12:31;36.20;30.70
4249;DHT22;8404;48.752;12.922;2022-09-02T15:15:00;36.00;30.60
4249;DHT22;8404;48.752;12.922;2022-09-02T15:17:30;35.80;30.90
4249;DHT22;8404;48.752;12.922;2022-09-02T15:19:58;35.90;31.10
4249;DHT22;8404;48.752;12.922;2022-09-02T15:22:27;35.80;30.40
4249;DHT22;8404;48.752;12.922;2022-09-02T15:24:55;35.80;30.80
4249;DHT22;8404;48.752;12.922;2022-09-02T15:27:24;35.60;30.30
4249;DHT22;8404;48.752;12.922;2022-09-02T15:29:52;35.40;30.20
4249;DHT22;8404;48.752;12.922;2022-09-02T15:32:20;35.00;30.60
4249;DHT22;8404;48.752;12.922;2022-09-02T15:34:50;34.90;30.70
4249;DHT22;8404;48.752;12.922;2022-09-02T15:37:18;34.80;30.90
4249;DHT22;8404;48.752;12.922;2022-09-02T15:39:48;34.80;31.40
4249;DHT22;8404;48.752;12.922;2022-09-02T15:42:17;34.60;31.30
4249;DHT22;8404;48.752;12.922;2022-09-02T15:44:45;34.60;31.70
4249;DHT22;8404;48.752;12.922;2022-09-02T15:47:14;34.30;31.40
4249;DHT22;8404;48.752;12.922;2022-09-02T15:49:42;34.20;31.90
4249;DHT22;8404;48.752;12.922;2022-09-02T15:52:11;34.00;31.10
4249;DHT22;8404;48.752;12.922;2022-09-02T15:54:40;33.70;31.50
4249;DHT22;8404;48.752;12.922;2022-09-02T15:57:08;33.50;31.80
4249;DHT22;8404;48.752;12.922;2022-09-02T15:59:37;33.20;32.20
4249;DHT22;8404;48.752;12.922;2022-09-02T16:02:05;33.00;32.40
4249;DHT22;8404;48.752;12.922;2022-09-02T16:04:33;32.80;32.10
4249;DHT22;8404;48.752;12.922;2022-09-02T16:07:02;32.50;32.00
4249;DHT22;8404;48.752;12.922;2022-09-02T16:09:32;32.30;32.20
4249;DHT22;8404;48.752;12.922;2022-09-02T16:12:00;32.00;32.20
4249;DHT22;8404;48.752;12.922;2022-09-02T16:14:29;31.80;32.20
4249;DHT22;8404;48.752;12.922;2022-09-02T16:16:57;31.50;32.40
4249;DHT22;8404;48.752;12.922;2022-09-02T16:19:26;31.30;32.70
4249;DHT22;8404;48.752;12.922;2022-09-02T16:21:56;31.10;33.20
4249;DHT22;8404;48.752;12.922;2022-09-02T16:24:25;30.90;33.30
4249;DHT22;8404;48.752;12.922;2022-09-02T16:26:54;30.70;34.20
4249;DHT22;8404;48.752;12.922;2022-09-02T16:29:23;30.30;34.10
4249;DHT22;8404;48.752;12.922;2022-09-02T16:31:54;30.10;34.20
4249;DHT22;8404;48.752;12.922;2022-09-02T16:34:42;29.70;35.20
4249;DHT22;8404;48.752;12.922;2022-09-02T16:37:12;29.50;35.10
4249;DHT22;8404;48.752;12.922;2022-09-02T16:39:41;29.40;35.20
4249;DHT22;8404;48.752;12.922;2022-09-02T16:42:11;29.20;35.30
4249;DHT22;8404;48.752;12.922;2022-09-02T16:44:39;29.20;35.50
4249;DHT22;8404;48.752;12.922;2022-09-02T16:47:08;29.10;35.40